Time;durP1;ratioP1;P1;durP2;ratioP2;P2;SDS_P1;SDS_P2;PMS_P1;PMS_P2;Temp;Humidity;BMP_temperature;BMP_pressure;BME280_temperature;BME280_humidity;BME280_pressure;Samples;Min_cycle;Max_cycle;Signal;HPM_P1;HPM_P2
2022/12/14 00:01:40;;;;;;;6.20;3.20;;;;;;;;;;5103284;27;20176;-78
2022/12/14 00:04:06;;;;;;;2.65;1.85;;;;;;;;;;5103012;27;20034;-79
2022/12/14 00:06:32;;;;;;;5.72;3.13;;;;;;;;;;5093963;27;20425;-77
2022/12/14 00:09:00;;;;;;;3.15;2.45;;;;;;;;;;5103779;28;20706;-78
2022/12/14 00:11:26;;;;;;;6.63;2.75;;;;;;;;;;5102705;27;20044;-79
2022/12/14 00:13:56;;;;;;;8.35;3.20;;;;;;;;;;5104439;27;20090;-79
2022/12/14 00:16:23;;;;;;;7.90;2.95;;;;;;;;;;5099207;27;22006;-78
2022/12/14 00:18:51;;;;;;;4.63;2.78;;;;;;;;;;5102619;27;20486;-78
2022/12/14 00:21:17;;;;;;;2.05;1.48;;;;;;;;;;5105957;27;20125;-79
2022/12/14 00:23:43;;;;;;;4.07;2.60;;;;;;;;;;5099750;27;20272;-79
2022/12/14 00:26:10;;;;;;;5.82;3.40;;;-2.40;99.90;;;;;;5083997;28;20020;-78
2022/12/14 00:28:36;;;;;;;6.53;3.88;;;;;;;;;;5102379;27;20168;-79
2022/12/14 00:31:02;;;;;;;4.68;1.95;;;;;;;;;;5098542;27;20067;-78
2022/12/14 00:33:28;;;;;;;3.17;2.50;;;;;;;;;;5095757;27;20043;-78
2022/12/14 00:35:54;;;;;;;6.10;3.03;;;;;;;;;;5104302;27;20020;-79
2022/12/14 00:38:20;;;;;;;5.82;3.55;;;;;;;;;;5103238;28;20130;-78
2022/12/14 00:40:46;;;;;;;6.72;3.15;;;;;;;;;;5099573;28;20074;-77
2022/12/14 00:43:12;;;;;;;5.50;3.70;;;;;;;;;;5100690;27;20032;-78
2022/12/14 00:45:38;;;;;;;3.45;2.58;;;;;;;;;;5096091;27;20028;-79
2022/12/14 00:48:05;;;;;;;6.18;3.28;;;;;;;;;;5100745;28;20012;-79
2022/12/14 00:50:31;;;;;;;6.97;2.55;;;;;;;;;;5101818;27;20479;-78
2022/12/14 00:52:57;;;;;;;4.57;2.88;;;;;;;;;;5101094;28;20076;-78
2022/12/14 00:55:23;;;;;;;3.25;2.58;;;;;;;;;;5104228;28;20036;-78
2022/12/14 00:57:49;;;;;;;5.68;4.07;;;;;;;;;;5102577;27;20555;-78
2022/12/14 01:00:16;;;;;;;5.40;2.70;;;;;;;;;;5100707;28;20072;-78
2022/12/14 01:02:42;;;;;;;5.55;2.70;;;;;;;;;;5099025;28;20069;-78
2022/12/14 01:05:08;;;;;;;8.55;3.97;;;;;;;;;;5106838;28;20118;-79
2022/12/14 01:07:34;;;;;;;5.00;3.45;;;;;;;;;;5099170;28;20535;-78
2022/12/14 01:10:00;;;;;;;5.93;3.17;;;;;;;;;;5097944;28;20081;-78
2022/12/14 01:12:26;;;;;;;4.90;2.95;;;;;;;;;;5092411;28;20527;-78
2022/12/14 01:14:52;;;;;;;7.35;3.40;;;;;;;;;;5100645;28;20027;-79
2022/12/14 01:17:18;;;;;;;5.13;3.25;;;;;;;;;;5099729;28;20447;-79
2022/12/14 01:19:44;;;;;;;8.13;4.18;;;;;;;;;;5100072;28;20051;-79
2022/12/14 01:22:10;;;;;;;9.80;3.38;;;;;;;;;;5099334;28;20097;-78
2022/12/14 01:24:36;;;;;;;6.97;4.40;;;;;;;;;;5103912;28;20024;-78
2022/12/14 01:27:02;;;;;;;6.22;3.88;;;;;;;;;;5103004;28;20027;-79
2022/12/14 01:29:28;;;;;;;4.43;2.85;;;;;;;;;;5097599;28;20050;-78
2022/12/14 01:31:54;;;;;;;7.57;3.75;;;;;;;;;;5095600;28;20058;-78
2022/12/14 01:34:20;;;;;;;4.47;2.90;;;;;;;;;;5105968;28;20066;-79
2022/12/14 01:36:46;;;;;;;5.75;3.30;;;;;;;;;;5106373;28;20776;-79
2022/12/14 01:39:13;;;;;;;4.70;3.67;;;;;;;;;;5104526;28;20023;-78
2022/12/14 01:41:41;;;;;;;8.10;3.45;;;;;;;;;;5100602;28;20043;-78
2022/12/14 01:44:07;;;;;;;5.82;4.95;;;;;;;;;;5104772;28;20028;-79
2022/12/14 01:46:47;;;;;;;10.43;4.72;;;;;;;;;;5103861;27;20034;-78
2022/12/14 01:49:22;;;;;;;8.40;3.83;;;;;;;;;;5109552;27;20039;-79
2022/12/14 01:51:57;;;;;;;6.38;3.20;;;;;;;;;;5106384;28;20178;-78
2022/12/14 01:54:23;;;;;;;6.85;3.22;;;;;;;;;;5109431;27;20544;-79
2022/12/14 01:56:49;;;;;;;7.20;3.97;;;;;;;;;;5107883;27;20035;-78
2022/12/14 01:59:18;;;;;;;5.93;4.28;;;;;;;;;;5109510;27;20039;-78
2022/12/14 02:01:44;;;;;;;7.10;3.17;;;;;;;;;;5102140;27;21923;-78
2022/12/14 02:04:12;;;;;;;5.82;2.88;;;;;;;;;;5106492;27;20031;-78
2022/12/14 02:06:39;;;;;;;5.93;2.88;;;;;;;;;;5111520;27;20086;-78
2022/12/14 02:09:08;;;;;;;5.65;4.22;;;;;;;;;;5105649;27;20091;-78
2022/12/14 02:11:41;;;;;;;5.32;2.78;;;;;;;;;;5105452;27;20046;-80
2022/12/14 02:14:07;;;;;;;8.02;4.03;;;;;;;;;;5104923;27;20023;-78
2022/12/14 02:16:33;;;;;;;4.53;2.75;;;;;;;;;;5102353;27;20524;-78
2022/12/14 02:18:59;;;;;;;6.18;4.28;;;;;;;;;;5107964;27;20573;-77
2022/12/14 02:21:34;;;;;;;8.10;3.78;;;;;;;;;;5103427;27;20036;-78
2022/12/14 02:24:09;;;;;;;4.95;3.53;;;;;;;;;;5101548;27;20067;-78
2022/12/14 02:26:55;;;;;;;7.57;4.03;;;;;;;;;;5105384;27;20031;-78
2022/12/14 02:29:33;;;;;;;3.92;2.90;;;;;;;;;;5063475;28;20085;-78
2022/12/14 02:32:19;;;;;;;4.90;3.55;;;;;;;;;;5105530;27;20040;-78
2022/12/14 02:34:57;;;;;;;5.30;3.40;;;;;;;;;;5095287;27;20028;-78
2022/12/14 02:37:45;;;;;;;5.82;3.53;;;-2.50;99.90;;;;;;5100508;27;20080;-79
2022/12/14 02:40:19;;;;;;;18.48;4.05;;;;;;;;;;5045171;28;20040;-78
2022/12/14 02:42:44;;;;;;;;;;;;;;;;;;5098402;27;20380;-80
2022/12/14 02:45:16;;;;;;;3.40;2.65;;;;;;;;;;5103699;28;19914;-79
2022/12/14 02:47:53;;;;;;;5.82;3.53;;;;;;;;;;5100387;27;20020;-79
2022/12/14 02:50:25;;;;;;;4.03;3.35;;;;;;;;;;5103406;28;20236;-80
2022/12/14 02:53:18;;;;;;;9.43;4.87;;;;;;;;;;5103627;27;20057;-78
2022/12/14 02:55:47;;;;;;;6.65;5.03;;;;;;;;;;5098981;27;20081;-78
2022/12/14 02:58:15;;;;;;;9.75;3.95;;;-2.20;99.90;;;;;;5102678;27;20073;-78
2022/12/14 03:00:41;;;;;;;11.18;5.20;;;;;;;;;;5104866;27;20038;-79
2022/12/14 03:03:07;;;;;;;11.57;5.75;;;;;;;;;;5102988;27;20103;-78
2022/12/14 03:05:34;;;;;;;6.82;4.00;;;;;;;;;;5105555;27;20476;-78
2022/12/14 03:08:08;;;;;;;6.90;3.90;;;;;;;;;;5103828;27;20030;-79
2022/12/14 03:10:47;;;;;;;6.97;4.07;;;;;;;;;;5100027;27;20164;-79
2022/12/14 03:13:19;;;;;;;7.85;4.25;;;;;;;;;;5097076;27;20043;-78
2022/12/14 03:15:48;;;;;;;8.40;4.35;;;;;;;;;;5098988;27;20032;-79
2022/12/14 03:18:18;;;;;;;12.85;6.20;;;-2.30;99.90;;;;;;5105278;27;20036;-79
2022/12/14 03:20:46;;;;;;;6.82;3.83;;;;;;;;;;5102812;27;20032;-78
2022/12/14 03:23:14;;;;;;;7.15;3.97;;;;;;;;;;5086325;28;20027;-78
2022/12/14 03:25:46;;;;;;;12.45;3.55;;;-2.30;99.90;;;;;;5104880;27;20120;-78
2022/12/14 03:28:12;;;;;;;9.40;4.22;;;;;;;;;;5112763;27;20062;-78
2022/12/14 03:30:39;;;;;;;5.43;4.30;;;;;;;;;;5115017;27;20354;-78
2022/12/14 03:33:12;;;;;;;6.25;4.03;;;-2.40;99.90;;;;;;5115121;27;20368;-78
2022/12/14 03:35:42;;;;;;;8.43;4.88;;;;;;;;;;5116624;27;20053;-78
2022/12/14 03:38:11;;;;;;;10.45;4.35;;;;;;;;;;5104927;28;20373;-78
2022/12/14 03:40:41;;;;;;;9.10;3.80;;;;;;;;;;5100951;27;20383;-79
2022/12/14 03:43:07;;;;;;;5.72;4.93;;;;;;;;;;5101626;27;20015;-78
2022/12/14 03:45:36;;;;;;;14.15;5.13;;;;;;;;;;5104570;27;20042;-79
2022/12/14 03:48:14;;;;;;;11.68;4.97;;;;;;;;;;5101003;27;20031;-79
2022/12/14 03:50:43;;;;;;;7.43;4.43;;;;;;;;;;5104079;27;20039;-79
2022/12/14 03:53:09;;;;;;;8.43;5.82;;;;;;;;;;5107933;27;20387;-78
2022/12/14 03:55:58;;;;;;;5.72;3.22;;;-1.30;99.90;;;;;;5100654;27;20113;-79
2022/12/14 03:58:24;;;;;;;15.23;5.28;;;;;;;;;;5099554;27;20024;-79
2022/12/14 04:01:08;;;;;;;9.63;3.70;;;;;;;;;;5103514;27;20028;-79
2022/12/14 04:03:46;;;;;;;4.93;3.08;;;;;;;;;;5095823;27;20032;-79
2022/12/14 04:06:18;;;;;;;7.93;4.53;;;;;;;;;;5101524;27;20033;-78
2022/12/14 04:08:44;;;;;;;7.82;4.63;;;;;;;;;;5101882;27;20020;-79
2022/12/14 04:19:54;;;;;;;9.82;4.13;;;;;;;;;;5102922;27;20548;-79
2022/12/14 04:22:25;;;;;;;11.13;5.35;;;;;;;;;;5096772;27;20066;-78
2022/12/14 04:27:53;;;;;;;9.70;4.18;;;;;;;;;;5102447;28;20089;-79
2022/12/14 04:30:19;;;;;;;4.75;3.08;;;;;;;;;;5099968;27;20073;-79
2022/12/14 04:32:52;;;;;;;7.43;5.43;;;-2.00;99.90;;;;;;5095444;27;20134;-78
2022/12/14 04:35:18;;;;;;;7.47;4.32;;;;;;;;;;5112520;27;20028;-79
2022/12/14 04:37:46;;;;;;;6.57;5.22;;;;;;;;;;5107564;27;20094;-78
2022/12/14 04:40:14;;;;;;;12.25;5.65;;;;;;;;;;5103345;27;20020;-78
2022/12/14 04:42:44;;;;;;;9.82;5.35;;;;;;;;;;5103340;27;20034;-78
2022/12/14 04:45:13;;;;;;;11.85;7.05;;;;;;;;;;5103781;27;21275;-78
2022/12/14 04:47:43;;;;;;;8.65;4.75;;;;;;;;;;5100400;28;20065;-79
2022/12/14 04:50:09;;;;;;;15.75;5.60;;;;;;;;;;5102635;27;20028;-80
2022/12/14 04:52:44;;;;;;;10.70;4.85;;;;;;;;;;5112154;27;20035;-79
2022/12/14 04:55:10;;;;;;;9.63;4.65;;;;;;;;;;5101528;28;20051;-78
2022/12/14 04:57:41;;;;;;;13.35;5.57;;;;;;;;;;5097147;28;20055;-78
2022/12/14 05:00:08;;;;;;;8.65;5.65;;;;;;;;;;5099653;28;21323;-78
2022/12/14 05:02:49;;;;;;;8.07;5.15;;;-1.30;99.90;;;;;;5098469;28;20049;-80
2022/12/14 05:05:34;;;;;;;9.75;5.13;;;;;;;;;;5089296;28;20356;-79
2022/12/14 05:08:00;;;;;;;12.27;5.25;;;;;;;;;;5103483;28;20031;-79
2022/12/14 05:10:41;;;;;;;8.52;4.65;;;;;;;;;;5099176;28;20027;-79
2022/12/14 05:13:16;;;;;;;8.43;4.70;;;;;;;;;;5100708;28;20028;-79
2022/12/14 05:15:51;;;;;;;7.10;5.35;;;-2.00;99.90;;;;;;5106629;28;20495;-79
2022/12/14 05:18:17;;;;;;;7.90;4.20;;;;;;;;;;5101922;28;20085;-79
2022/12/14 05:20:43;;;;;;;13.77;5.07;;;;;;;;;;5111674;27;20066;-78
2022/12/14 05:23:09;;;;;;;11.98;4.55;;;;;;;;;;5099736;27;20074;-80
2022/12/14 05:25:35;;;;;;;7.07;3.90;;;;;;;;;;5099269;27;20039;-80
2022/12/14 05:28:01;;;;;;;13.43;5.00;;;;;;;;;;5103301;27;20391;-79
2022/12/14 05:30:27;;;;;;;8.27;5.30;;;;;;;;;;5101435;27;20027;-80
2022/12/14 05:32:53;;;;;;;12.60;7.07;;;;;;;;;;5104260;27;20110;-80
2022/12/14 05:35:19;;;;;;;8.18;3.65;;;;;;;;;;5097869;28;20031;-80
2022/12/14 05:37:45;;;;;;;7.70;3.92;;;;;;;;;;5105475;27;20039;-80
2022/12/14 05:40:11;;;;;;;8.75;4.57;;;;;;;;;;5110584;27;20497;-79
2022/12/14 05:42:37;;;;;;;9.98;6.10;;;;;;;;;;5096217;28;20043;-81
2022/12/14 05:45:03;;;;;;;7.95;4.78;;;;;;;;;;5101797;27;20020;-80
2022/12/14 05:47:29;;;;;;;12.48;6.45;;;;;;;;;;5109378;27;20058;-80
2022/12/14 05:49:55;;;;;;;5.05;3.65;;;;;;;;;;5112177;27;20059;-80
2022/12/14 05:52:25;;;;;;;14.23;5.75;;;;;;;;;;5101660;27;20054;-81
2022/12/14 05:54:51;;;;;;;9.50;4.93;;;;;;;;;;5103765;27;20027;-80
2022/12/14 05:57:17;;;;;;;8.32;4.30;;;;;;;;;;5104641;27;20035;-80
2022/12/14 05:59:43;;;;;;;7.88;4.97;;;;;;;;;;5108211;27;20035;-79
2022/12/14 06:02:09;;;;;;;8.75;5.18;;;;;;;;;;5102749;27;20134;-80
2022/12/14 06:04:35;;;;;;;11.18;5.18;;;;;;;;;;5110228;27;20019;-80
2022/12/14 06:07:01;;;;;;;20.27;5.28;;;;;;;;;;5112906;27;20023;-80
2022/12/14 06:09:27;;;;;;;7.00;3.85;;;;;;;;;;5112753;27;20028;-80
2022/12/14 06:11:53;;;;;;;8.80;5.50;;;;;;;;;;5111677;27;20050;-80
2022/12/14 06:14:19;;;;;;;8.40;5.70;;;;;;;;;;5117710;27;20471;-80
2022/12/14 06:16:45;;;;;;;8.30;4.13;;;;;;;;;;5111004;27;20039;-80
2022/12/14 06:19:12;;;;;;;16.83;5.35;;;;;;;;;;5113384;27;20023;-80
2022/12/14 06:21:39;;;;;;;10.52;5.88;;;;;;;;;;5112160;27;20032;-80
2022/12/14 06:24:06;;;;;;;6.22;4.05;;;;;;;;;;5112046;27;20096;-80
2022/12/14 06:26:32;;;;;;;10.90;4.57;;;;;;;;;;5114820;27;20050;-80
2022/12/14 06:28:59;;;;;;;10.23;5.63;;;;;;;;;;5102010;27;20054;-80
2022/12/14 06:31:26;;;;;;;7.55;4.55;;;;;;;;;;5108419;27;20050;-81
2022/12/14 06:33:53;;;;;;;10.55;4.47;;;-1.20;99.90;;;;;;5097567;27;20169;-81
2022/12/14 06:36:22;;;;;;;7.30;4.68;;;-2.10;99.90;;;;;;5113701;27;20033;-80
2022/12/14 06:38:49;;;;;;;25.77;7.78;;;;;;;;;;5106112;27;20034;-80
2022/12/14 06:41:15;;;;;;;13.52;5.97;;;;;;;;;;5108661;27;20024;-80
2022/12/14 06:43:41;;;;;;;12.98;6.10;;;;;;;;;;5114729;27;20024;-81
2022/12/14 06:46:11;;;;;;;11.30;5.95;;;;;;;;;;5108055;27;20039;-80
2022/12/14 06:48:37;;;;;;;10.43;5.72;;;;;;;;;;5112763;27;20057;-80
2022/12/14 06:51:03;;;;;;;9.27;5.20;;;;;;;;;;5118820;27;20058;-80
2022/12/14 06:53:29;;;;;;;13.70;5.30;;;;;;;;;;5110280;27;20027;-80
2022/12/14 06:56:06;;;;;;;11.32;5.97;;;;;;;;;;5108919;27;20023;-81
2022/12/14 06:58:32;;;;;;;8.68;5.03;;;;;;;;;;5105975;27;20032;-80
2022/12/14 07:01:01;;;;;;;8.25;4.72;;;;;;;;;;5103284;27;20035;-80
2022/12/14 07:03:27;;;;;;;11.52;6.68;;;;;;;;;;5109009;27;20027;-80
2022/12/14 07:05:56;;;;;;;8.73;5.28;;;;;;;;;;5108482;27;22021;-81
2022/12/14 07:08:22;;;;;;;10.80;5.63;;;;;;;;;;5102743;27;20028;-80
2022/12/14 07:10:48;;;;;;;17.48;6.63;;;;;;;;;;5108134;27;20050;-80
2022/12/14 07:13:14;;;;;;;9.15;6.60;;;;;;;;;;5110442;27;20020;-80
2022/12/14 07:15:40;;;;;;;12.43;7.55;;;;;;;;;;5104039;27;21187;-80
2022/12/14 07:18:06;;;;;;;12.80;4.30;;;;;;;;;;5110347;28;20453;-80
2022/12/14 07:20:32;;;;;;;17.35;7.47;;;;;;;;;;5111504;27;20165;-81
2022/12/14 07:22:58;;;;;;;12.77;6.15;;;;;;;;;;5120694;27;20028;-80
2022/12/14 07:25:24;;;;;;;8.02;6.00;;;;;;;;;;5101090;27;20116;-80
2022/12/14 07:27:50;;;;;;;11.43;6.45;;;;;;;;;;5110395;27;20107;-80
2022/12/14 07:30:17;;;;;;;10.65;6.47;;;;;;;;;;5110306;27;20081;-80
2022/12/14 07:32:42;;;;;;;6.47;4.63;;;;;;;;;;5105085;27;20053;-80
2022/12/14 07:35:09;;;;;;;13.43;6.05;;;;;;;;;;5102619;28;20028;-80
2022/12/14 07:37:35;;;;;;;11.55;5.43;;;;;;;;;;5116642;27;20035;-80
2022/12/14 07:40:02;;;;;;;8.45;5.63;;;;;;;;;;5115514;27;20625;-80
2022/12/14 07:42:28;;;;;;;9.00;5.15;;;;;;;;;;5107589;28;20031;-81
2022/12/14 07:44:54;;;;;;;12.25;5.63;;;;;;;;;;5104339;28;20027;-80
2022/12/14 07:47:20;;;;;;;10.98;5.28;;;;;;;;;;5107019;27;20071;-81
2022/12/14 07:49:46;;;;;;;22.08;6.28;;;;;;;;;;5118123;27;20035;-81
2022/12/14 07:52:12;;;;;;;10.48;6.20;;;;;;;;;;5107460;27;20035;-80
2022/12/14 07:54:38;;;;;;;21.58;7.57;;;;;;;;;;5106619;27;20615;-81
2022/12/14 07:57:04;;;;;;;14.52;7.20;;;;;;;;;;5105379;27;20139;-80
2022/12/14 07:59:30;;;;;;;8.65;5.80;;;;;;;;;;5103547;27;20126;-81
2022/12/14 08:01:56;;;;;;;9.48;6.63;;;;;;;;;;5110827;27;20027;-81
2022/12/14 08:04:22;;;;;;;10.90;5.55;;;;;;;;;;5111573;27;20286;-81
2022/12/14 08:06:48;;;;;;;9.35;6.15;;;;;;;;;;5110584;27;20031;-79
2022/12/14 08:09:15;;;;;;;10.48;6.22;;;;;;;;;;5105793;28;20023;-81
2022/12/14 08:11:41;;;;;;;12.80;5.95;;;;;;;;;;5115486;27;20031;-80
2022/12/14 08:14:16;;;;;;;18.48;6.75;;;;;;;;;;5112036;27;20024;-80
2022/12/14 08:16:43;;;;;;;14.23;6.10;;;;;;;;;;5112218;27;20099;-80
2022/12/14 08:19:10;;;;;;;11.63;7.70;;;;;;;;;;5113752;27;20028;-80
2022/12/14 08:21:36;;;;;;;14.88;7.38;;;;;;;;;;5113472;27;20023;-81
2022/12/14 08:24:02;;;;;;;13.23;7.40;;;;;;;;;;5117547;27;20079;-80
2022/12/14 08:26:28;;;;;;;9.48;6.53;;;;;;;;;;5117736;27;20783;-82
2022/12/14 08:28:55;;;;;;;13.25;6.20;;;;;;;;;;5108862;27;20070;-80
2022/12/14 08:31:23;;;;;;;12.25;6.10;;;;;;;;;;5108600;27;20039;-80
2022/12/14 08:33:49;;;;;;;10.70;5.35;;;;;;;;;;5115628;27;20027;-80
2022/12/14 08:36:17;;;;;;;13.65;6.88;;;;;;;;;;5113579;27;20499;-81
2022/12/14 08:38:44;;;;;;;14.38;6.13;;;;;;;;;;5105592;27;20099;-80
2022/12/14 08:41:11;;;;;;;14.32;7.25;;;;;;;;;;5114653;27;20100;-82
2022/12/14 08:43:38;;;;;;;9.77;6.72;;;-1.00;99.90;;;;;;5103944;28;20023;-80
2022/12/14 08:46:04;;;;;;;22.50;6.35;;;;;;;;;;5111901;27;20069;-80
2022/12/14 08:48:30;;;;;;;10.88;6.78;;;;;;;;;;5113192;27;20106;-81
2022/12/14 08:51:07;;;;;;;16.63;7.57;;;;;;;;;;5110256;27;20475;-81
2022/12/14 08:53:33;;;;;;;11.70;7.05;;;;;;;;;;5103067;28;20115;-81
2022/12/14 08:56:03;;;;;;;9.82;7.30;;;;;;;;;;5111311;28;20019;-81
2022/12/14 08:58:29;;;;;;;12.52;6.40;;;;;;;;;;5108352;27;20028;-81
2022/12/14 09:01:06;;;;;;;11.43;6.07;;;;;;;;;;5116028;28;20031;-79
2022/12/14 09:03:32;;;;;;;12.10;8.13;;;;;;;;;;5124681;28;20084;-80
2022/12/14 09:06:02;;;;;;;14.02;7.32;;;;;;;;;;5120984;28;20023;-78
2022/12/14 09:08:28;;;;;;;14.70;6.57;;;;;;;;;;5118973;27;20032;-81
2022/12/14 09:10:54;;;;;;;9.75;6.60;;;;;;;;;;5112122;28;20028;-80
2022/12/14 09:13:20;;;;;;;15.45;6.43;;;;;;;;;;5108879;28;22538;-81
2022/12/14 09:15:54;;;;;;;11.20;6.72;;;;;;;;;;5108276;28;20273;-80
2022/12/14 09:18:20;;;;;;;13.95;7.60;;;;;;;;;;5109305;28;20035;-81
2022/12/14 09:20:46;;;;;;;9.27;5.90;;;;;;;;;;5115366;28;20034;-80
2022/12/14 09:23:12;;;;;;;18.05;7.03;;;;;;;;;;5113439;28;20023;-80
2022/12/14 09:25:38;;;;;;;12.32;6.10;;;;;;;;;;5111017;28;20088;-81
2022/12/14 09:28:04;;;;;;;17.80;5.95;;;;;;;;;;5104926;28;20141;-80
2022/12/14 09:30:30;;;;;;;13.98;7.45;;;;;;;;;;5105424;28;20024;-81
2022/12/14 09:32:56;;;;;;;21.90;9.48;;;;;;;;;;5107758;28;20044;-81
2022/12/14 09:35:22;;;;;;;14.95;8.15;;;;;;;;;;5098971;28;20252;-79
2022/12/14 09:37:48;;;;;;;14.18;7.35;;;;;;;;;;5112595;28;20506;-80
2022/12/14 09:40:15;;;;;;;16.00;10.40;;;;;;;;;;5105874;28;20631;-79
2022/12/14 09:42:49;;;;;;;11.63;6.63;;;;;;;;;;5105466;28;20023;-81
2022/12/14 09:45:24;;;;;;;17.80;9.52;;;;;;;;;;5101432;28;20114;-80
2022/12/14 09:47:50;;;;;;;15.63;8.35;;;;;;;;;;5106842;28;20512;-80
2022/12/14 09:50:18;;;;;;;12.63;7.70;;;;;;;;;;5106426;28;20127;-81
2022/12/14 09:52:50;;;;;;;13.15;7.68;;;;;;;;;;5098639;28;20073;-80
2022/12/14 09:55:18;;;;;;;12.68;7.15;;;;;;;;;;5097988;28;20047;-80
2022/12/14 09:57:44;;;;;;;18.65;8.23;;;;;;;;;;5097408;28;20032;-80
2022/12/14 10:00:17;;;;;;;21.92;8.68;;;;;;;;;;5108360;28;20156;-80
2022/12/14 10:02:43;;;;;;;17.05;9.55;;;;;;;;;;5106087;28;20028;-80
2022/12/14 10:05:38;;;;;;;13.50;9.25;;;;;;;;;;5103627;28;20122;-80
2022/12/14 10:08:07;;;;;;;18.73;8.77;;;;;;;;;;5083342;27;20076;-80
2022/12/14 10:10:52;;;;;;;14.75;9.00;;;;;;;;;;5110295;27;20043;-80
2022/12/14 10:13:31;;;;;;;14.80;8.15;;;-0.50;99.90;;;;;;5100598;27;20671;-81
2022/12/14 10:16:16;;;;;;;13.23;7.40;;;;;;;;;;5105811;27;20021;-81
2022/12/14 10:18:49;;;;;;;13.88;7.78;;;;;;;;;;5107235;27;20036;-79
2022/12/14 10:21:14;;;;;;;;;;;;;;;;;;5110848;27;20039;-80
2022/12/14 10:23:43;;;;;;;13.07;6.03;;;;;;;;;;5116094;27;19908;-80
2022/12/14 10:26:12;;;;;;;20.88;9.73;;;;;;;;;;5107172;27;20419;-81
2022/12/14 10:28:41;;;;;;;12.55;7.80;;;;;;;;;;5097978;27;20115;-80
2022/12/14 10:31:11;;;;;;;14.45;8.23;;;;;;;;;;5106822;27;20130;-80
2022/12/14 10:33:40;;;;;;;12.73;7.30;;;;;;;;;;5119888;27;20053;-80
2022/12/14 10:36:24;;;;;;;12.48;8.15;;;;;;;;;;5115077;27;20118;-80
2022/12/14 10:38:57;;;;;;;9.35;6.30;;;;;;;;;;5107395;27;20142;-79
2022/12/14 10:41:23;;;;;;;14.65;7.20;;;;;;;;;;5115478;27;20030;-80
2022/12/14 10:44:03;;;;;;;13.68;8.45;;;0.40;99.90;;;;;;5104435;27;20031;-80
2022/12/14 10:46:32;;;;;;;17.95;8.40;;;;;;;;;;5121462;27;20513;-79
2022/12/14 10:49:07;;;;;;;18.67;8.35;;;0.50;99.90;;;;;;5119008;27;20031;-79
2022/12/14 10:51:36;;;;;;;18.13;9.10;;;;;;;;;;5109085;27;20046;-80
2022/12/14 10:54:02;;;;;;;19.08;9.40;;;;;;;;;;5107549;27;20015;-80
2022/12/14 10:56:29;;;;;;;14.18;8.57;;;;;;;;;;5110007;27;20058;-80
2022/12/14 10:59:15;;;;;;;16.95;8.35;;;;;;;;;;5102938;27;20106;-80
2022/12/14 11:01:42;;;;;;;23.08;8.65;;;;;;;;;;5106816;27;20034;-80
2022/12/14 11:04:37;;;;;;;20.58;10.77;;;;;;;;;;5112266;27;20475;-80
2022/12/14 11:07:07;;;;;;;21.92;8.90;;;;;;;;;;5102901;27;20035;-80
2022/12/14 11:09:34;;;;;;;17.38;8.30;;;;;;;;;;5106482;27;20232;-79
2022/12/14 11:12:23;;;;;;;22.08;10.30;;;;;;;;;;5105762;27;20039;-80
2022/12/14 11:15:05;;;;;;;15.02;8.85;;;0.60;99.90;;;;;;5110513;27;20020;-80
2022/12/14 11:17:42;;;;;;;29.17;11.73;;;1.00;99.90;;;;;;5101251;27;20019;-80
2022/12/14 11:20:08;;;;;;;24.98;11.07;;;;;;;;;;5113090;27;20028;-81
2022/12/14 11:22:48;;;;;;;24.02;9.68;;;;;;;;;;5094579;28;20389;-80
2022/12/14 11:25:33;;;;;;;22.63;9.85;;;;;;;;;;5098430;28;20031;-81
2022/12/14 11:28:01;;;;;;;20.70;10.02;;;;;;;;;;5093127;28;20487;-81
2022/12/14 11:30:28;;;;;;;25.42;10.48;;;;;;;;;;5110870;27;20083;-81
2022/12/14 11:32:54;;;;;;;17.45;8.80;;;;;;;;;;5111669;27;20032;-80
2022/12/14 11:35:20;;;;;;;17.48;8.25;;;;;;;;;;5094546;27;20036;-81
2022/12/14 11:37:50;;;;;;;20.20;8.75;;;;;;;;;;5106932;27;20028;-81
2022/12/14 11:40:22;;;;;;;10.48;6.57;;;;;;;;;;5107800;27;20076;-81
2022/12/14 11:42:49;;;;;;;16.50;7.18;;;;;;;;;;5100583;27;20251;-80
2022/12/14 11:45:36;;;;;;;18.08;8.82;;;;;;;;;;5109378;27;20030;-81
2022/12/14 11:48:13;;;;;;;16.08;8.05;;;;;;;;;;5112698;27;20039;-82
2022/12/14 11:50:40;;;;;;;15.82;9.27;;;;;;;;;;5107949;27;21834;-81
2022/12/14 11:53:09;;;;;;;18.98;9.80;;;;;;;;;;5105864;27;20028;-82
2022/12/14 11:55:37;;;;;;;14.13;6.57;;;;;;;;;;5109199;27;20023;-81
2022/12/14 11:58:04;;;;;;;15.70;8.38;;;;;;;;;;5104326;27;20483;-81
2022/12/14 12:00:38;;;;;;;17.65;7.57;;;;;;;;;;5106011;27;20090;-81
2022/12/14 12:03:07;;;;;;;13.73;7.00;;;;;;;;;;5108869;27;20642;-81
2022/12/14 12:05:38;;;;;;;15.68;8.70;;;;;;;;;;5103567;27;20028;-80
2022/12/14 12:08:06;;;;;;;22.25;10.30;;;;;;;;;;5105290;27;20123;-80
2022/12/14 12:10:44;;;;;;;21.42;8.80;;;;;;;;;;5106770;27;20684;-82
2022/12/14 12:13:28;;;;;;;16.23;9.45;;;;;;;;;;5100467;28;20032;-81
2022/12/14 12:15:55;;;;;;;17.75;8.48;;;;;;;;;;5105934;28;20460;-81
2022/12/14 12:18:21;;;;;;;17.08;7.80;;;;;;;;;;5111154;27;20098;-81
2022/12/14 12:20:50;;;;;;;14.68;8.68;;;;;;;;;;5095647;27;20090;-81
2022/12/14 12:23:21;;;;;;;23.08;10.93;;;1.10;99.90;;;;;;5104610;27;20027;-80
2022/12/14 12:25:51;;;;;;;26.20;11.15;;;0.70;99.90;;;;;;5110186;27;20028;-81
2022/12/14 12:28:23;;;;;;;19.48;10.13;;;1.00;99.90;;;;;;5109393;28;20111;-81
2022/12/14 12:30:50;;;;;;;15.10;8.80;;;;;;;;;;5103415;28;20042;-82
2022/12/14 12:33:34;;;;;;;21.10;10.18;;;;;;;;;;5110715;28;20440;-81
2022/12/14 12:36:03;;;;;;;25.27;11.65;;;;;;;;;;5105383;27;20485;-82
2022/12/14 12:38:36;;;;;;;17.90;9.18;;;;;;;;;;5108653;27;20034;-81
2022/12/14 12:41:07;;;;;;;19.73;8.40;;;;;;;;;;5105275;27;20038;-81
2022/12/14 12:43:36;;;;;;;10.73;5.43;;;;;;;;;;5106700;28;20046;-81
2022/12/14 12:46:12;;;;;;;17.35;8.95;;;2.10;99.90;;;;;;5108169;27;20038;-81
2022/12/14 12:48:49;;;;;;;17.30;9.20;;;2.30;99.90;;;;;;5108892;28;20523;-81
2022/12/14 12:51:18;;;;;;;15.90;8.60;;;;;;;;;;5105963;27;20059;-82
2022/12/14 12:53:47;;;;;;;15.68;7.75;;;;;;;;;;5105724;28;20030;-81
2022/12/14 12:56:15;;;;;;;16.88;7.85;;;;;;;;;;5108826;27;20027;-81
2022/12/14 12:58:42;;;;;;;13.82;7.32;;;;;;;;;;5106476;27;20398;-81
2022/12/14 13:01:27;;;;;;;18.33;9.07;;;;;;;;;;5103409;28;20040;-82
2022/12/14 13:03:57;;;;;;;15.98;8.27;;;;;;;;;;5105260;28;20035;-81
2022/12/14 13:06:24;;;;;;;14.73;8.40;;;;;;;;;;5081620;28;20036;-81
2022/12/14 13:08:58;;;;;;;13.18;7.28;;;;;;;;;;5100649;28;20034;-80
2022/12/14 13:11:30;;;;;;;12.98;6.40;;;;;;;;;;5107127;28;20040;-80
2022/12/14 13:13:59;;;;;;;16.97;8.07;;;;;;;;;;5110396;28;20023;-82
2022/12/14 13:16:28;;;;;;;13.82;6.60;;;;;;;;;;5103127;28;20031;-81
2022/12/14 13:18:59;;;;;;;13.13;7.28;;;;;;;;;;5108733;28;20088;-81
2022/12/14 13:21:25;;;;;;;16.42;7.60;;;;;;;;;;5100640;28;20036;-80
2022/12/14 13:23:52;;;;;;;11.93;6.65;;;;;;;;;;5107728;28;20388;-81
2022/12/14 13:26:24;;;;;;;14.02;6.55;;;;;;;;;;5093493;28;20031;-86
2022/12/14 13:29:16;;;;;;;14.38;7.30;;;;;;;;;;5098418;28;20024;-80
2022/12/14 13:32:02;;;;;;;13.60;6.32;;;;;;;;;;5090702;28;20046;-81
2022/12/14 13:34:37;;;;;;;14.90;6.32;;;;;;;;;;5037330;28;20039;-80
2022/12/14 13:37:16;;;;;;;13.85;6.30;;;;;;;;;;5094635;28;20028;-80
2022/12/14 13:39:51;;;;;;;13.80;7.32;;;;;;;;;;5099947;28;20491;-81
2022/12/14 13:42:17;;;;;;;11.75;6.18;;;;;;;;;;5104425;27;20471;-80
2022/12/14 13:45:09;;;;;;;15.63;6.57;;;;;;;;;;5103234;28;20047;-80
2022/12/14 13:47:43;;;;;;;14.15;7.25;;;;;;;;;;5099590;28;20047;-80
2022/12/14 13:50:21;;;;;;;12.93;6.43;;;;;;;;;;5108314;27;20031;-80
2022/12/14 13:52:48;;;;;;;13.50;8.32;;;0.80;99.90;;;;;;5104856;28;20039;-79
2022/12/14 13:55:23;;;;;;;12.23;7.20;;;;;;;;;;5103943;27;21473;-80
2022/12/14 13:57:50;;;;;;;14.98;5.90;;;;;;;;;;5109463;27;20032;-80
2022/12/14 14:00:36;;;;;;;10.13;5.68;;;;;;;;;;5106404;27;20089;-80
2022/12/14 14:03:02;;;;;;;20.25;9.68;;;;;;;;;;5097619;27;20062;-78
2022/12/14 14:05:33;;;;;;;18.08;7.05;;;0.50;99.90;;;;;;5107723;27;20051;-79
2022/12/14 14:08:05;;;;;;;12.85;7.32;;;;;;;;;;5099689;27;20045;-79
2022/12/14 14:10:35;;;;;;;17.90;9.18;;;;;;;;;;5094006;28;20538;-79
2022/12/14 14:13:21;;;;;;;15.50;8.50;;;;;;;;;;5105604;28;20050;-82
2022/12/14 14:15:50;;;;;;;14.32;7.25;;;;;;;;;;5106800;27;20031;-81
2022/12/14 14:18:19;;;;;;;12.65;5.97;;;;;;;;;;5108242;27;20032;-81
2022/12/14 14:20:50;;;;;;;18.15;8.60;;;;;;;;;;5104598;27;20026;-81
2022/12/14 14:23:16;;;;;;;17.45;7.60;;;;;;;;;;5090845;27;20031;-80
2022/12/14 14:25:45;;;;;;;11.15;6.55;;;;;;;;;;5100743;27;20035;-80
2022/12/14 14:28:12;;;;;;;13.27;5.72;;;;;;;;;;5101832;27;20035;-79
2022/12/14 14:30:58;;;;;;;9.00;5.50;;;-0.50;99.90;;;;;;5097791;28;20150;-80
2022/12/14 14:33:28;;;;;;;12.77;6.82;;;;;;;;;;5106716;27;20491;-80
2022/12/14 14:36:06;;;;;;;13.15;7.72;;;;;;;;;;5094881;27;20030;-79
2022/12/14 14:38:32;;;;;;;11.02;5.53;;;;;;;;;;5092169;27;20966;-80
2022/12/14 14:41:01;;;;;;;12.75;6.65;;;-0.50;99.90;;;;;;5103775;27;20031;-78
2022/12/14 14:43:33;;;;;;;9.75;5.13;;;;;;;;;;5111138;28;20042;-79
2022/12/14 14:46:04;;;;;;;11.23;5.45;;;;;;;;;;5108786;27;22911;-77
2022/12/14 14:48:33;;;;;;;15.30;6.50;;;;;;;;;;5106340;27;20020;-80
2022/12/14 14:51:07;;;;;;;11.20;5.90;;;;;;;;;;5092704;27;20384;-77
2022/12/14 14:53:34;;;;;;;8.38;4.57;;;;;;;;;;5092919;27;20071;-80